createdAt,value
2022-10-14T00:01:27.142Z,15.93
2022-10-14T00:03:57.874Z,15.91
2022-10-14T00:06:28.608Z,15.81
2022-10-14T00:09:00.338Z,15.86
2022-10-14T00:11:31.600Z,15.88
2022-10-14T00:14:02.580Z,15.88
2022-10-14T00:16:36.078Z,15.55
2022-10-14T00:19:06.951Z,15.64
2022-10-14T00:21:37.009Z,15.64
2022-10-14T00:24:07.692Z,15.70
2022-10-14T00:26:38.908Z,15.63
2022-10-14T00:29:10.766Z,15.63
2022-10-14T00:31:39.919Z,15.43
2022-10-14T00:34:13.091Z,15.18
2022-10-14T00:36:41.600Z,14.98
2022-10-14T00:39:12.912Z,15.03
2022-10-14T00:41:41.795Z,15.21
2022-10-14T00:44:48.556Z,15.12
2022-10-14T00:47:18.769Z,15.29
2022-10-14T00:49:47.332Z,15.37
2022-10-14T00:52:19.230Z,15.49
2022-10-14T00:54:52.147Z,15.50
2022-10-14T00:57:21.429Z,15.50
2022-10-14T00:59:50.442Z,15.61
2022-10-14T01:02:20.421Z,15.62
2022-10-14T01:04:49.197Z,15.54
2022-10-14T01:07:27.069Z,15.71
2022-10-14T01:10:04.066Z,15.92
2022-10-14T01:12:42.934Z,16.03
2022-10-14T01:15:23.008Z,16.06
2022-10-14T01:18:03.527Z,16.26
2022-10-14T01:20:48.685Z,16.27
2022-10-14T01:23:51.621Z,16.37
2022-10-14T01:26:45.114Z,16.35
2022-10-14T01:29:25.191Z,16.41
2022-10-14T01:32:04.067Z,16.43
2022-10-14T01:34:40.488Z,16.38
2022-10-14T01:37:16.472Z,16.24
2022-10-14T01:39:53.050Z,16.33
2022-10-14T01:42:27.039Z,16.26
2022-10-14T01:45:00.713Z,16.16
2022-10-14T01:47:34.353Z,16.20
2022-10-14T01:50:06.385Z,16.23
2022-10-14T01:52:40.362Z,16.10
2022-10-14T01:55:15.087Z,16.10
2022-10-14T01:57:46.336Z,16.13
2022-10-14T02:00:17.108Z,16.18
2022-10-14T02:02:47.047Z,16.28
2022-10-14T02:05:21.440Z,16.26
2022-10-14T02:07:53.951Z,16.14
2022-10-14T02:10:35.502Z,15.88
2022-10-14T02:13:16.678Z,15.82
2022-10-14T02:15:56.383Z,15.83
2022-10-14T02:18:36.886Z,15.89
2022-10-14T02:21:17.285Z,15.65
2022-10-14T02:24:01.546Z,15.75
2022-10-14T02:26:32.829Z,15.85
2022-10-14T02:29:05.344Z,15.73
2022-10-14T02:31:37.985Z,15.75
2022-10-14T02:34:12.233Z,15.81
2022-10-14T02:36:42.426Z,15.97
2022-10-14T02:39:14.842Z,16.04
2022-10-14T02:41:43.357Z,15.79
2022-10-14T02:44:12.440Z,15.71
2022-10-14T02:46:41.782Z,15.70
2022-10-14T02:49:13.306Z,15.67
2022-10-14T02:51:41.825Z,15.64
2022-10-14T02:54:12.709Z,15.74
2022-10-14T02:56:41.376Z,15.75
2022-10-14T02:59:09.862Z,15.77
2022-10-14T03:01:39.613Z,15.79
2022-10-14T03:04:10.621Z,15.79
2022-10-14T03:06:40.460Z,15.88
2022-10-14T03:09:09.938Z,15.91
2022-10-14T03:11:41.644Z,15.92
2022-10-14T03:14:15.683Z,15.98
2022-10-14T03:16:45.042Z,16.00
2022-10-14T03:19:20.034Z,15.97
2022-10-14T03:21:52.541Z,16.07
2022-10-14T03:24:22.388Z,15.98
2022-10-14T03:27:05.120Z,16.07
2022-10-14T03:29:33.822Z,16.06
2022-10-14T03:32:13.876Z,15.95
2022-10-14T03:35:19.207Z,15.96
2022-10-14T03:37:53.354Z,15.88
2022-10-14T03:40:24.668Z,15.88
2022-10-14T03:42:53.298Z,15.81
2022-10-14T03:45:23.729Z,15.84
2022-10-14T03:47:53.746Z,15.95
2022-10-14T03:50:22.841Z,15.82
2022-10-14T03:52:56.045Z,15.80
2022-10-14T03:55:34.606Z,15.62
2022-10-14T03:58:04.376Z,15.60
2022-10-14T04:00:33.378Z,15.63
2022-10-14T04:03:23.312Z,15.42
2022-10-14T04:05:51.785Z,15.42
2022-10-14T04:08:25.577Z,15.41
2022-10-14T04:11:04.378Z,15.27
2022-10-14T04:13:38.038Z,15.28
2022-10-14T04:16:07.298Z,15.19
2022-10-14T04:18:40.269Z,15.21
2022-10-14T04:21:13.126Z,15.27
2022-10-14T04:23:46.846Z,15.22
2022-10-14T04:26:18.336Z,15.21
2022-10-14T04:28:47.879Z,15.32
2022-10-14T04:31:29.733Z,15.23
2022-10-14T04:34:02.864Z,15.41
2022-10-14T04:36:36.927Z,15.42
2022-10-14T04:39:12.152Z,15.34
2022-10-14T04:41:40.725Z,15.33
2022-10-14T04:44:09.967Z,15.22
2022-10-14T04:46:45.821Z,15.31
2022-10-14T04:49:15.681Z,15.27
2022-10-14T04:51:52.056Z,15.27
2022-10-14T04:54:30.951Z,15.28
2022-10-14T04:57:01.661Z,15.27
2022-10-14T04:59:31.166Z,15.35
2022-10-14T05:05:26.373Z,15.19
2022-10-14T05:07:58.293Z,15.20
2022-10-14T05:10:36.191Z,15.27
2022-10-14T05:13:08.847Z,15.42
2022-10-14T05:15:45.368Z,15.42
2022-10-14T05:18:14.394Z,15.45
2022-10-14T05:20:59.375Z,15.44
2022-10-14T05:23:36.758Z,15.48
2022-10-14T05:26:07.191Z,15.58
2022-10-14T05:28:36.204Z,15.64
2022-10-14T05:31:05.425Z,15.70
2022-10-14T05:33:37.754Z,15.76
2022-10-14T05:36:06.683Z,15.84
2022-10-14T05:38:36.039Z,15.88
2022-10-14T05:41:07.080Z,15.96
2022-10-14T05:43:36.937Z,15.96
2022-10-14T05:46:07.662Z,16.04
2022-10-14T05:48:40.260Z,16.07
2022-10-14T05:51:08.822Z,16.12
2022-10-14T05:53:40.203Z,16.18
2022-10-14T05:56:16.515Z,16.22
2022-10-14T05:58:45.288Z,16.15
2022-10-14T06:01:13.719Z,15.91
2022-10-14T06:03:43.721Z,15.90
2022-10-14T06:06:15.202Z,15.82
2022-10-14T06:08:44.423Z,15.87
2022-10-14T06:11:13.672Z,15.81
2022-10-14T06:13:43.580Z,15.79
2022-10-14T06:16:12.567Z,15.82
2022-10-14T06:18:41.364Z,15.86
2022-10-14T06:21:12.481Z,15.82
2022-10-14T06:23:40.938Z,15.88
2022-10-14T06:26:10.178Z,15.97
2022-10-14T06:28:38.921Z,15.89
2022-10-14T06:31:08.900Z,15.84
2022-10-14T06:33:37.324Z,16.00
2022-10-14T06:36:07.181Z,16.05
2022-10-14T06:38:35.622Z,16.19
2022-10-14T06:41:04.908Z,16.23
2022-10-14T06:43:35.563Z,16.24
2022-10-14T06:46:04.496Z,16.21
2022-10-14T06:48:34.743Z,16.20
2022-10-14T06:51:03.676Z,16.28
2022-10-14T06:53:32.148Z,16.21
2022-10-14T06:56:01.810Z,16.28
2022-10-14T06:58:39.255Z,16.33
2022-10-14T07:01:09.200Z,16.37
2022-10-14T07:03:40.248Z,16.38
2022-10-14T07:06:10.138Z,16.36
2022-10-14T07:08:38.540Z,16.46
2022-10-14T07:11:07.835Z,16.35
2022-10-14T07:13:36.244Z,16.34
2022-10-14T07:16:04.967Z,16.24
2022-10-14T07:18:33.837Z,16.28
2022-10-14T07:21:05.252Z,16.39
2022-10-14T07:23:34.397Z,16.44
2022-10-14T07:26:03.103Z,16.48
2022-10-14T07:28:31.627Z,16.56
2022-10-14T07:31:01.929Z,16.56
2022-10-14T07:33:30.836Z,16.57
2022-10-14T07:36:03.285Z,16.53
2022-10-14T07:38:33.538Z,16.78
2022-10-14T07:41:03.764Z,16.90
2022-10-14T07:43:33.405Z,16.94
2022-10-14T07:46:02.966Z,16.91
2022-10-14T07:48:52.185Z,16.88
2022-10-14T07:51:21.701Z,16.60
2022-10-14T07:53:53.218Z,16.70
2022-10-14T07:56:22.477Z,16.81
2022-10-14T07:58:51.027Z,16.82
2022-10-14T08:01:19.868Z,17.16
2022-10-14T08:03:50.011Z,16.95
2022-10-14T08:06:18.546Z,17.35
2022-10-14T08:08:47.220Z,17.42
2022-10-14T08:11:18.758Z,17.43
2022-10-14T08:13:47.899Z,17.72
2022-10-14T08:16:18.554Z,18.19
2022-10-14T08:18:48.683Z,18.47
2022-10-14T08:21:18.792Z,18.75
2022-10-14T08:23:47.432Z,19.00
2022-10-14T08:26:21.549Z,18.98
2022-10-14T08:28:50.866Z,19.67
2022-10-14T08:31:19.609Z,20.53
2022-10-14T08:33:48.616Z,21.46
2022-10-14T08:36:17.344Z,22.00
2022-10-14T08:38:45.756Z,22.32
2022-10-14T08:41:27.669Z,22.37
2022-10-14T08:44:11.891Z,22.60
2022-10-14T08:46:49.415Z,22.91
2022-10-14T08:49:27.448Z,22.38
2022-10-14T08:52:02.367Z,21.87
2022-10-14T08:54:39.518Z,22.21
2022-10-14T08:57:18.013Z,23.12
2022-10-14T08:59:48.154Z,24.14
2022-10-14T09:02:25.889Z,24.53
2022-10-14T09:04:54.380Z,25.41
2022-10-14T09:07:23.293Z,26.68
2022-10-14T09:09:54.407Z,28.92
2022-10-14T09:12:29.667Z,30.84
2022-10-14T09:15:10.189Z,31.79
2022-10-14T09:17:44.487Z,32.46
2022-10-14T09:20:20.056Z,32.43
2022-10-14T09:22:58.465Z,30.15
2022-10-14T09:25:27.290Z,29.33
2022-10-14T09:27:57.328Z,30.02
2022-10-14T09:30:25.701Z,30.67
2022-10-14T09:32:55.617Z,30.52
2022-10-14T09:35:27.801Z,30.02
2022-10-14T09:37:56.407Z,31.49
2022-10-14T09:40:31.455Z,31.57
2022-10-14T09:43:07.329Z,31.56
2022-10-14T09:45:51.036Z,30.65
2022-10-14T09:48:25.381Z,29.29
2022-10-14T09:50:57.591Z,29.30
2022-10-14T09:53:30.532Z,30.70
2022-10-14T09:56:01.024Z,30.42
2022-10-14T09:58:36.895Z,29.18
2022-10-14T10:01:12.910Z,28.38
2022-10-14T10:03:41.663Z,27.57
2022-10-14T10:06:12.216Z,27.48
2022-10-14T10:08:43.384Z,27.40
2022-10-14T10:11:14.044Z,28.23
2022-10-14T10:13:46.464Z,27.80
2022-10-14T10:16:25.333Z,28.18
2022-10-14T10:18:57.342Z,30.25
2022-10-14T10:21:29.514Z,32.54
2022-10-14T10:24:25.964Z,35.17
2022-10-14T10:26:57.384Z,35.49
2022-10-14T10:29:32.457Z,37.44
2022-10-14T10:32:10.192Z,38.54
2022-10-14T10:34:56.666Z,39.35
2022-10-14T10:37:30.185Z,40.02
2022-10-14T10:40:20.328Z,40.04
2022-10-14T10:43:02.038Z,38.58
2022-10-14T10:45:44.702Z,39.04
2022-10-14T10:48:18.581Z,38.57
2022-10-14T10:50:57.893Z,38.75
2022-10-14T10:54:00.699Z,39.02
2022-10-14T10:56:39.292Z,40.11
2022-10-14T10:59:43.376Z,40.23
2022-10-14T11:02:51.776Z,41.07
2022-10-14T11:05:29.954Z,39.81
2022-10-14T11:08:22.376Z,39.63
2022-10-14T11:11:19.999Z,36.80
2022-10-14T11:13:56.832Z,38.87
2022-10-14T11:16:33.568Z,39.51
2022-10-14T11:19:13.904Z,40.94
2022-10-14T11:21:49.339Z,39.10
2022-10-14T11:24:29.779Z,39.72
2022-10-14T11:27:09.919Z,39.45
2022-10-14T11:30:06.336Z,35.70
2022-10-14T11:32:45.985Z,34.32
2022-10-14T11:35:26.417Z,33.91
2022-10-14T11:38:10.690Z,36.88
2022-10-14T11:40:46.477Z,35.99
2022-10-14T11:43:23.633Z,35.98
2022-10-14T11:45:56.441Z,34.52
2022-10-14T11:48:31.585Z,31.79
2022-10-14T11:51:12.461Z,32.07
2022-10-14T11:53:50.778Z,31.95
2022-10-14T11:56:29.788Z,32.28
2022-10-14T11:59:02.532Z,34.11
2022-10-14T12:01:37.432Z,34.50
2022-10-14T12:04:18.098Z,33.67
2022-10-14T12:06:51.788Z,31.70
2022-10-14T12:09:25.433Z,29.75
2022-10-14T12:11:59.312Z,30.18
2022-10-14T12:14:36.178Z,29.80
2022-10-14T12:17:08.854Z,29.34
2022-10-14T12:19:38.371Z,28.48
2022-10-14T12:22:16.488Z,28.14
2022-10-14T12:24:49.778Z,27.38
2022-10-14T12:27:20.240Z,27.79
2022-10-14T12:29:50.842Z,28.48
2022-10-14T12:32:24.753Z,30.01
2022-10-14T12:34:57.648Z,30.48
2022-10-14T12:37:50.289Z,29.74
2022-10-14T12:40:32.328Z,28.19
2022-10-14T12:43:07.246Z,27.18
2022-10-14T12:45:36.968Z,26.86
2022-10-14T12:48:15.435Z,27.03
2022-10-14T12:50:46.397Z,26.75
2022-10-14T12:53:25.085Z,27.22
2022-10-14T12:55:55.246Z,27.42
2022-10-14T12:58:28.658Z,27.09
2022-10-14T13:01:01.901Z,27.31
2022-10-14T13:03:34.927Z,27.44
2022-10-14T13:06:39.153Z,27.42
2022-10-14T13:09:40.055Z,27.40
2022-10-14T13:12:41.212Z,27.20
2022-10-14T13:15:36.750Z,27.38
2022-10-14T13:18:51.857Z,27.50
2022-10-14T13:21:50.939Z,27.53
2022-10-14T13:24:26.932Z,27.80
2022-10-14T13:27:12.237Z,27.81
2022-10-14T13:30:02.863Z,27.61
2022-10-14T13:32:40.737Z,27.74
2022-10-14T13:35:17.678Z,27.54
2022-10-14T13:37:57.961Z,27.55
2022-10-14T13:40:31.777Z,27.16
2022-10-14T13:43:02.040Z,27.08
2022-10-14T13:45:39.650Z,27.19
2022-10-14T13:48:17.053Z,27.39
2022-10-14T13:50:49.182Z,27.21
2022-10-14T13:53:20.067Z,27.11
2022-10-14T13:55:54.269Z,26.86
2022-10-14T13:58:24.675Z,26.85
2022-10-14T14:01:03.875Z,26.66
2022-10-14T14:03:37.445Z,26.63
2022-10-14T14:06:12.542Z,26.36
2022-10-14T14:08:48.784Z,26.40
2022-10-14T14:11:22.634Z,26.30
2022-10-14T14:14:00.715Z,26.09
2022-10-14T14:16:35.145Z,26.33
2022-10-14T14:19:10.191Z,26.52
2022-10-14T14:21:39.245Z,26.58
2022-10-14T14:24:18.175Z,26.68
2022-10-14T14:26:56.013Z,26.80
2022-10-14T14:29:29.937Z,26.70
2022-10-14T14:32:06.654Z,26.76
2022-10-14T14:34:39.770Z,26.90
2022-10-14T14:37:37.091Z,26.75
2022-10-14T14:40:08.526Z,26.59
2022-10-14T14:42:39.684Z,26.40
2022-10-14T14:45:14.453Z,26.54
2022-10-14T14:47:43.593Z,26.45
2022-10-14T14:50:30.125Z,26.32
2022-10-14T14:53:04.095Z,26.36
2022-10-14T14:55:43.378Z,26.27
2022-10-14T14:58:28.020Z,26.16
2022-10-14T15:00:57.235Z,26.18
2022-10-14T15:03:28.462Z,26.27
2022-10-14T15:06:02.311Z,26.15
2022-10-14T15:08:33.169Z,26.23
2022-10-14T15:11:02.589Z,26.24
2022-10-14T15:13:46.597Z,26.26
2022-10-14T15:16:15.095Z,26.26
2022-10-14T15:18:43.746Z,26.18
2022-10-14T15:21:19.347Z,26.06
2022-10-14T15:24:03.311Z,26.01
2022-10-14T15:26:35.769Z,25.90
2022-10-14T15:29:15.060Z,25.81
2022-10-14T15:31:45.730Z,25.69
2022-10-14T15:34:20.682Z,25.43
2022-10-14T15:36:54.240Z,25.58
2022-10-14T15:39:23.806Z,25.56
2022-10-14T15:41:52.457Z,25.35
2022-10-14T15:44:20.969Z,25.23
2022-10-14T15:47:06.929Z,25.08
2022-10-14T15:49:39.273Z,24.98
2022-10-14T15:52:11.746Z,24.91
2022-10-14T15:54:40.250Z,24.85
2022-10-14T15:57:11.273Z,24.89
2022-10-14T15:59:42.728Z,24.59
2022-10-14T16:02:18.104Z,24.66
2022-10-14T16:05:00.831Z,24.54
2022-10-14T16:07:36.873Z,24.46
2022-10-14T16:10:06.492Z,24.37
2022-10-14T16:12:34.926Z,24.43
2022-10-14T16:17:32.418Z,24.15
2022-10-14T16:20:00.965Z,24.18
2022-10-14T16:22:29.408Z,24.17
2022-10-14T16:24:59.271Z,24.04
2022-10-14T16:27:27.695Z,24.00
2022-10-14T16:29:56.139Z,23.89
2022-10-14T16:32:24.590Z,23.75
2022-10-14T16:34:54.384Z,23.79
2022-10-14T16:37:23.046Z,23.72
2022-10-14T16:39:51.711Z,23.56
2022-10-14T16:42:21.549Z,23.53
2022-10-14T16:44:50.021Z,23.39
2022-10-14T16:47:19.715Z,23.32
2022-10-14T16:49:51.981Z,23.25
2022-10-14T16:52:21.148Z,23.17
2022-10-14T16:54:50.080Z,23.16
2022-10-14T16:57:19.057Z,23.08
2022-10-14T16:59:48.925Z,23.05
2022-10-14T17:02:18.605Z,22.87
2022-10-14T17:04:48.232Z,22.67
2022-10-14T17:07:17.604Z,22.52
2022-10-14T17:09:46.024Z,22.44
2022-10-14T17:12:14.543Z,22.39
2022-10-14T17:14:44.273Z,22.29
2022-10-14T17:17:17.257Z,22.20
2022-10-14T17:19:46.100Z,22.10
2022-10-14T17:22:14.552Z,22.07
2022-10-14T17:24:43.007Z,21.94
2022-10-14T17:27:11.486Z,21.94
2022-10-14T17:29:39.922Z,21.90
2022-10-14T17:32:08.341Z,21.70
2022-10-14T17:34:38.266Z,21.63
2022-10-14T17:39:41.794Z,21.53
2022-10-14T17:42:10.207Z,21.47
2022-10-14T17:44:43.488Z,21.36
2022-10-14T17:47:13.033Z,21.31
2022-10-14T17:49:43.282Z,21.22
2022-10-14T17:52:12.791Z,21.03
2022-10-14T17:54:41.814Z,21.00
2022-10-14T17:57:10.846Z,20.92
2022-10-14T17:59:39.829Z,20.82
2022-10-14T18:02:11.527Z,20.79
2022-10-14T18:04:40.268Z,20.60
2022-10-14T18:07:10.357Z,20.59
2022-10-14T18:09:38.769Z,20.41
2022-10-14T18:12:09.306Z,20.36
2022-10-14T18:14:39.278Z,20.31
2022-10-14T18:17:08.767Z,20.18
2022-10-14T18:19:37.731Z,20.16
2022-10-14T18:22:07.291Z,20.12
2022-10-14T18:24:38.701Z,20.02
2022-10-14T18:27:08.262Z,20.04
2022-10-14T18:29:38.974Z,20.01
2022-10-14T18:32:08.279Z,19.94
2022-10-14T18:34:37.313Z,19.90
2022-10-14T18:37:06.479Z,19.87
2022-10-14T18:39:34.892Z,19.87
2022-10-14T18:42:04.944Z,19.79
2022-10-14T18:44:33.479Z,19.75
2022-10-14T18:47:01.897Z,19.73
2022-10-14T18:49:30.360Z,19.72
2022-10-14T18:51:58.810Z,19.63
2022-10-14T18:54:28.198Z,19.55
2022-10-14T18:56:58.501Z,19.56
2022-10-14T18:59:29.540Z,19.49
2022-10-14T19:01:58.262Z,19.45
2022-10-14T19:04:28.127Z,19.51
2022-10-14T19:06:56.578Z,19.25
2022-10-14T19:09:29.778Z,19.36
2022-10-14T19:11:59.733Z,19.31
2022-10-14T19:14:31.973Z,19.31
2022-10-14T19:17:00.386Z,19.27
2022-10-14T19:19:29.001Z,19.24
2022-10-14T19:21:59.822Z,19.13
2022-10-14T19:24:28.599Z,19.00
2022-10-14T19:26:57.314Z,19.03
2022-10-14T19:29:25.929Z,19.04
2022-10-14T19:31:56.157Z,19.04
2022-10-14T19:34:27.087Z,18.96
2022-10-14T19:36:55.904Z,18.78
2022-10-14T19:39:24.700Z,18.80
2022-10-14T19:41:53.173Z,18.74
2022-10-14T19:44:21.655Z,18.74
2022-10-14T19:46:50.790Z,18.69
2022-10-14T19:49:21.090Z,18.68
2022-10-14T19:51:49.886Z,18.54
2022-10-14T19:54:18.456Z,18.40
2022-10-14T19:56:46.873Z,18.26
2022-10-14T19:59:16.405Z,18.11
2022-10-14T20:01:45.305Z,18.11
2022-10-14T20:04:14.097Z,18.06
2022-10-14T20:06:45.216Z,18.03
2022-10-14T20:09:14.824Z,17.96
2022-10-14T20:11:43.887Z,17.95
2022-10-14T20:14:12.343Z,17.97
2022-10-14T20:16:40.808Z,17.93
2022-10-14T20:19:09.240Z,17.93
2022-10-14T20:21:37.755Z,17.91
2022-10-14T20:24:08.088Z,17.86
2022-10-14T20:26:37.866Z,17.80
2022-10-14T20:29:06.460Z,17.83
2022-10-14T20:31:34.896Z,17.79
2022-10-14T20:34:08.682Z,17.78
2022-10-14T20:36:39.717Z,17.72
2022-10-14T20:39:09.572Z,17.61
2022-10-14T20:41:38.136Z,17.43
2022-10-14T20:44:06.785Z,17.32
2022-10-14T20:46:35.281Z,17.19
2022-10-14T20:49:03.722Z,17.22
2022-10-14T20:51:32.140Z,17.31
2022-10-14T20:54:04.073Z,17.33
2022-10-14T20:56:36.854Z,17.22
2022-10-14T20:59:07.489Z,17.15
2022-10-14T21:01:37.297Z,17.11
2022-10-14T21:04:08.335Z,17.20
2022-10-14T21:06:38.882Z,17.14
2022-10-14T21:09:08.157Z,17.16
2022-10-14T21:11:37.989Z,17.13
2022-10-14T21:14:06.867Z,17.04
2022-10-14T21:16:37.396Z,17.09
2022-10-14T21:19:07.960Z,17.02
2022-10-14T21:21:38.168Z,17.03
2022-10-14T21:24:07.899Z,17.00
2022-10-14T21:26:37.956Z,16.76
2022-10-14T21:29:06.489Z,16.59
2022-10-14T21:31:35.087Z,16.60
2022-10-14T21:34:06.352Z,16.63
2022-10-14T21:36:35.864Z,16.62
2022-10-14T21:39:07.782Z,16.60
2022-10-14T21:41:38.506Z,16.66
2022-10-14T21:44:08.218Z,16.48
2022-10-14T21:46:37.546Z,16.48
2022-10-14T21:49:06.354Z,16.54
2022-10-14T21:51:34.845Z,16.49
2022-10-14T21:54:04.234Z,16.31
2022-10-14T21:56:32.683Z,16.40
2022-10-14T21:59:02.562Z,16.39
2022-10-14T22:01:31.478Z,16.32
2022-10-14T22:04:01.622Z,16.17
2022-10-14T22:06:30.153Z,15.99
2022-10-14T22:09:00.067Z,15.92
2022-10-14T22:11:30.847Z,15.77
2022-10-14T22:14:01.197Z,15.88
2022-10-14T22:16:31.948Z,15.95
2022-10-14T22:19:02.038Z,15.96
2022-10-14T22:21:31.979Z,16.04
2022-10-14T22:24:00.813Z,15.99
2022-10-14T22:26:32.106Z,15.85
2022-10-14T22:29:01.955Z,15.81
2022-10-14T22:31:34.131Z,15.85
2022-10-14T22:34:02.977Z,15.88
2022-10-14T22:36:31.813Z,15.90
2022-10-14T22:39:02.186Z,15.89
2022-10-14T22:41:35.173Z,15.81
2022-10-14T22:44:06.338Z,15.87
2022-10-14T22:46:38.933Z,15.89
2022-10-14T22:49:07.786Z,15.87
2022-10-14T22:51:40.561Z,15.83
2022-10-14T22:54:09.961Z,15.59
2022-10-14T22:56:39.002Z,15.44
2022-10-14T22:59:08.967Z,15.49
2022-10-14T23:01:39.736Z,15.46
2022-10-14T23:04:08.641Z,15.42
2022-10-14T23:06:37.140Z,15.47
2022-10-14T23:09:05.982Z,15.36
2022-10-14T23:11:34.384Z,15.31
2022-10-14T23:14:06.214Z,15.19
2022-10-14T23:16:35.991Z,15.17
2022-10-14T23:19:06.353Z,15.24
2022-10-14T23:21:36.111Z,15.23
2022-10-14T23:24:07.243Z,15.19
2022-10-14T23:26:37.095Z,15.23
2022-10-14T23:29:08.183Z,15.20
2022-10-14T23:31:38.040Z,15.21
2022-10-14T23:34:11.612Z,15.27
2022-10-14T23:36:40.476Z,15.22
2022-10-14T23:39:08.900Z,15.31
2022-10-14T23:41:37.440Z,15.28
2022-10-14T23:44:06.172Z,15.32
2022-10-14T23:46:34.875Z,15.29
2022-10-14T23:49:36.924Z,15.17
2022-10-14T23:51:53.409Z,14.95
2022-10-14T23:54:21.846Z,14.97
2022-10-14T23:56:50.269Z,14.89
2022-10-14T23:59:18.802Z,14.91
